sensor_id;sensor_type;location;lat;lon;timestamp;temperature;humidity
69204;DHT22;56317;27.658;85.326;2023-08-06T00:01:50;21.40;99.90
69204;DHT22;56317;27.658;85.326;2023-08-06T00:04:17;21.50;99.90
69204;DHT22;56317;27.658;85.326;2023-08-06T00:06:45;21.50;99.90
69204;DHT22;56317;27.658;85.326;2023-08-06T00:09:13;21.50;99.90
69204;DHT22;56317;27.658;85.326;2023-08-06T00:11:40;21.50;99.90
69204;DHT22;56317;27.658;85.326;2023-08-06T00:14:07;21.50;99.90
69204;DHT22;56317;27.658;85.326;2023-08-06T00:16:34;21.50;99.90
69204;DHT22;56317;27.658;85.326;2023-08-06T00:19:01;21.50;99.90
69204;DHT22;56317;27.658;85.326;2023-08-06T00:21:28;21.60;99.90
69204;DHT22;56317;27.658;85.326;2023-08-06T00:23:56;21.60;99.90
69204;DHT22;56317;27.658;85.326;2023-08-06T00:26:23;21.60;99.90
69204;DHT22;56317;27.658;85.326;2023-08-06T00:28:50;21.60;99.90
69204;DHT22;56317;27.658;85.326;2023-08-06T00:31:18;21.60;99.90
69204;DHT22;56317;27.658;85.326;2023-08-06T00:33:45;21.70;99.90
69204;DHT22;56317;27.658;85.326;2023-08-06T00:36:12;21.70;99.90
69204;DHT22;56317;27.658;85.326;2023-08-06T00:38:39;21.70;99.90
69204;DHT22;56317;27.658;85.326;2023-08-06T00:41:06;21.70;99.90
69204;DHT22;56317;27.658;85.326;2023-08-06T00:43:33;21.70;99.90
69204;DHT22;56317;27.658;85.326;2023-08-06T00:46:00;21.80;99.90
69204;DHT22;56317;27.658;85.326;2023-08-06T00:48:28;21.80;99.90
69204;DHT22;56317;27.658;85.326;2023-08-06T00:50:55;21.80;99.90
69204;DHT22;56317;27.658;85.326;2023-08-06T00:53:23;21.80;99.90
69204;DHT22;56317;27.658;85.326;2023-08-06T00:55:50;22.00;99.90
69204;DHT22;56317;27.658;85.326;2023-08-06T00:58:17;22.00;99.90
69204;DHT22;56317;27.658;85.326;2023-08-06T01:00:45;22.10;99.90
69204;DHT22;56317;27.658;85.326;2023-08-06T01:03:12;22.20;99.90
69204;DHT22;56317;27.658;85.326;2023-08-06T01:05:40;22.20;99.90
69204;DHT22;56317;27.658;85.326;2023-08-06T01:08:27;22.30;99.90
69204;DHT22;56317;27.658;85.326;2023-08-06T01:13:54;22.50;99.90
69204;DHT22;56317;27.658;85.326;2023-08-06T01:16:24;22.50;99.90
69204;DHT22;56317;27.658;85.326;2023-08-06T01:18:51;22.50;99.90
69204;DHT22;56317;27.658;85.326;2023-08-06T01:21:19;22.60;99.90
69204;DHT22;56317;27.658;85.326;2023-08-06T01:23:47;22.70;99.90
69204;DHT22;56317;27.658;85.326;2023-08-06T01:31:38;23.20;99.90
69204;DHT22;56317;27.658;85.326;2023-08-06T01:34:09;23.40;99.90
69204;DHT22;56317;27.658;85.326;2023-08-06T01:36:38;23.50;99.90
69204;DHT22;56317;27.658;85.326;2023-08-06T01:39:06;23.70;99.90
69204;DHT22;56317;27.658;85.326;2023-08-06T01:41:33;23.80;99.90
69204;DHT22;56317;27.658;85.326;2023-08-06T01:44:00;23.90;99.90
69204;DHT22;56317;27.658;85.326;2023-08-06T01:46:27;24.20;99.90
69204;DHT22;56317;27.658;85.326;2023-08-06T01:48:54;24.30;99.90
69204;DHT22;56317;27.658;85.326;2023-08-06T01:51:21;24.40;99.90
69204;DHT22;56317;27.658;85.326;2023-08-06T01:53:48;24.70;99.90
69204;DHT22;56317;27.658;85.326;2023-08-06T01:56:15;24.80;99.90
69204;DHT22;56317;27.658;85.326;2023-08-06T01:58:42;24.80;99.90
69204;DHT22;56317;27.658;85.326;2023-08-06T02:01:09;24.80;99.90
69204;DHT22;56317;27.658;85.326;2023-08-06T02:03:36;24.70;99.90
69204;DHT22;56317;27.658;85.326;2023-08-06T02:06:04;24.80;99.90
69204;DHT22;56317;27.658;85.326;2023-08-06T02:08:31;24.90;99.90
69204;DHT22;56317;27.658;85.326;2023-08-06T02:10:58;25.20;99.90
69204;DHT22;56317;27.658;85.326;2023-08-06T02:13:25;25.40;99.90
69204;DHT22;56317;27.658;85.326;2023-08-06T02:15:52;25.40;99.90
69204;DHT22;56317;27.658;85.326;2023-08-06T02:18:20;25.30;99.90
69204;DHT22;56317;27.658;85.326;2023-08-06T02:20:56;25.30;99.90
69204;DHT22;56317;27.658;85.326;2023-08-06T02:23:24;25.30;99.90
69204;DHT22;56317;27.658;85.326;2023-08-06T02:26:03;25.30;99.90
69204;DHT22;56317;27.658;85.326;2023-08-06T02:28:31;25.30;99.90
69204;DHT22;56317;27.658;85.326;2023-08-06T02:30:58;25.30;99.90
69204;DHT22;56317;27.658;85.326;2023-08-06T02:33:25;25.30;99.90
69204;DHT22;56317;27.658;85.326;2023-08-06T02:36:02;25.50;99.90
69204;DHT22;56317;27.658;85.326;2023-08-06T02:38:33;25.60;99.90
69204;DHT22;56317;27.658;85.326;2023-08-06T02:41:03;25.80;99.90
69204;DHT22;56317;27.658;85.326;2023-08-06T02:43:30;26.10;99.90
69204;DHT22;56317;27.658;85.326;2023-08-06T02:46:01;26.20;99.90
69204;DHT22;56317;27.658;85.326;2023-08-06T02:48:28;26.40;99.90
69204;DHT22;56317;27.658;85.326;2023-08-06T02:50:59;26.60;99.90
69204;DHT22;56317;27.658;85.326;2023-08-06T02:53:26;26.60;99.90
69204;DHT22;56317;27.658;85.326;2023-08-06T02:55:53;26.70;99.90
69204;DHT22;56317;27.658;85.326;2023-08-06T02:58:21;26.80;99.90
69204;DHT22;56317;27.658;85.326;2023-08-06T03:01:02;26.90;99.90
69204;DHT22;56317;27.658;85.326;2023-08-06T03:03:33;27.00;99.90
69204;DHT22;56317;27.658;85.326;2023-08-06T03:06:00;27.10;99.90
69204;DHT22;56317;27.658;85.326;2023-08-06T03:08:28;27.00;99.90
69204;DHT22;56317;27.658;85.326;2023-08-06T03:10:55;27.00;99.90
69204;DHT22;56317;27.658;85.326;2023-08-06T03:13:22;27.00;99.90
69204;DHT22;56317;27.658;85.326;2023-08-06T03:15:56;27.00;99.90
69204;DHT22;56317;27.658;85.326;2023-08-06T03:18:24;27.00;99.90
69204;DHT22;56317;27.658;85.326;2023-08-06T03:20:52;27.00;99.90
69204;DHT22;56317;27.658;85.326;2023-08-06T03:23:20;27.10;99.90
69204;DHT22;56317;27.658;85.326;2023-08-06T03:25:47;27.00;99.90
69204;DHT22;56317;27.658;85.326;2023-08-06T03:28:14;26.80;99.90
69204;DHT22;56317;27.658;85.326;2023-08-06T03:30:41;26.50;99.90
69204;DHT22;56317;27.658;85.326;2023-08-06T03:33:08;26.30;99.90
69204;DHT22;56317;27.658;85.326;2023-08-06T03:35:35;26.30;99.90
69204;DHT22;56317;27.658;85.326;2023-08-06T03:38:02;26.10;99.90
69204;DHT22;56317;27.658;85.326;2023-08-06T03:40:29;25.90;99.90
69204;DHT22;56317;27.658;85.326;2023-08-06T03:42:56;25.90;99.90
69204;DHT22;56317;27.658;85.326;2023-08-06T03:45:23;25.80;99.90
69204;DHT22;56317;27.658;85.326;2023-08-06T03:47:50;25.70;99.90
69204;DHT22;56317;27.658;85.326;2023-08-06T03:50:18;25.80;99.90
69204;DHT22;56317;27.658;85.326;2023-08-06T03:52:45;25.80;99.90
69204;DHT22;56317;27.658;85.326;2023-08-06T03:55:12;25.90;99.90
69204;DHT22;56317;27.658;85.326;2023-08-06T03:57:39;26.00;99.90
69204;DHT22;56317;27.658;85.326;2023-08-06T04:00:06;25.90;99.90
69204;DHT22;56317;27.658;85.326;2023-08-06T04:02:34;25.90;99.90
69204;DHT22;56317;27.658;85.326;2023-08-06T04:05:01;26.00;99.90
69204;DHT22;56317;27.658;85.326;2023-08-06T04:07:28;25.80;99.90
69204;DHT22;56317;27.658;85.326;2023-08-06T04:09:59;25.70;99.90
69204;DHT22;56317;27.658;85.326;2023-08-06T04:12:27;25.40;99.90
69204;DHT22;56317;27.658;85.326;2023-08-06T04:14:56;25.10;99.90
69204;DHT22;56317;27.658;85.326;2023-08-06T04:17:24;25.00;99.90
69204;DHT22;56317;27.658;85.326;2023-08-06T04:19:52;25.10;99.90
69204;DHT22;56317;27.658;85.326;2023-08-06T04:22:20;25.10;99.90
69204;DHT22;56317;27.658;85.326;2023-08-06T04:24:48;25.10;99.90
69204;DHT22;56317;27.658;85.326;2023-08-06T04:27:16;25.10;99.90
69204;DHT22;56317;27.658;85.326;2023-08-06T04:29:43;25.10;99.90
69204;DHT22;56317;27.658;85.326;2023-08-06T04:32:11;25.10;99.90
69204;DHT22;56317;27.658;85.326;2023-08-06T04:34:38;25.00;99.90
69204;DHT22;56317;27.658;85.326;2023-08-06T04:37:05;25.00;99.90
69204;DHT22;56317;27.658;85.326;2023-08-06T04:39:32;25.00;99.90
69204;DHT22;56317;27.658;85.326;2023-08-06T04:41:59;25.10;99.90
69204;DHT22;56317;27.658;85.326;2023-08-06T04:44:27;25.20;99.90
69204;DHT22;56317;27.658;85.326;2023-08-06T04:46:54;25.20;99.90
69204;DHT22;56317;27.658;85.326;2023-08-06T04:49:21;25.40;99.90
69204;DHT22;56317;27.658;85.326;2023-08-06T04:51:48;25.50;99.90
69204;DHT22;56317;27.658;85.326;2023-08-06T04:54:15;25.60;99.90
69204;DHT22;56317;27.658;85.326;2023-08-06T04:56:42;25.60;99.90
69204;DHT22;56317;27.658;85.326;2023-08-06T04:59:09;25.80;99.90
69204;DHT22;56317;27.658;85.326;2023-08-06T05:01:36;26.00;99.90
69204;DHT22;56317;27.658;85.326;2023-08-06T05:04:04;26.20;99.90
69204;DHT22;56317;27.658;85.326;2023-08-06T05:06:31;26.60;99.90
69204;DHT22;56317;27.658;85.326;2023-08-06T05:08:58;26.90;99.90
69204;DHT22;56317;27.658;85.326;2023-08-06T05:11:25;27.30;99.90
69204;DHT22;56317;27.658;85.326;2023-08-06T05:13:52;27.60;99.90
69204;DHT22;56317;27.658;85.326;2023-08-06T05:16:19;27.80;99.90
69204;DHT22;56317;27.658;85.326;2023-08-06T05:18:46;28.20;99.90
69204;DHT22;56317;27.658;85.326;2023-08-06T05:21:13;28.50;99.90
69204;DHT22;56317;27.658;85.326;2023-08-06T05:23:42;28.60;99.90
69204;DHT22;56317;27.658;85.326;2023-08-06T05:26:10;28.60;99.90
69204;DHT22;56317;27.658;85.326;2023-08-06T05:28:37;28.50;99.90
69204;DHT22;56317;27.658;85.326;2023-08-06T05:31:05;28.50;99.90
69204;DHT22;56317;27.658;85.326;2023-08-06T05:33:32;28.40;99.90
69204;DHT22;56317;27.658;85.326;2023-08-06T05:35:59;28.60;99.90
69204;DHT22;56317;27.658;85.326;2023-08-06T05:38:26;29.00;99.90
69204;DHT22;56317;27.658;85.326;2023-08-06T05:40:53;29.40;99.90
69204;DHT22;56317;27.658;85.326;2023-08-06T05:43:21;29.40;99.90
69204;DHT22;56317;27.658;85.326;2023-08-06T05:45:51;29.60;99.90
69204;DHT22;56317;27.658;85.326;2023-08-06T05:48:19;29.60;99.90
69204;DHT22;56317;27.658;85.326;2023-08-06T05:50:46;29.70;99.90
69204;DHT22;56317;27.658;85.326;2023-08-06T05:53:13;29.90;99.90
69204;DHT22;56317;27.658;85.326;2023-08-06T05:55:40;30.20;99.90
69204;DHT22;56317;27.658;85.326;2023-08-06T05:58:07;30.30;99.90
69204;DHT22;56317;27.658;85.326;2023-08-06T06:00:34;30.50;99.90
69204;DHT22;56317;27.658;85.326;2023-08-06T06:03:02;30.50;99.90
69204;DHT22;56317;27.658;85.326;2023-08-06T06:05:29;30.60;99.90
69204;DHT22;56317;27.658;85.326;2023-08-06T06:07:56;30.70;99.90
69204;DHT22;56317;27.658;85.326;2023-08-06T06:10:23;31.40;99.90
69204;DHT22;56317;27.658;85.326;2023-08-06T06:12:50;31.80;99.90
69204;DHT22;56317;27.658;85.326;2023-08-06T06:15:17;31.50;99.90
69204;DHT22;56317;27.658;85.326;2023-08-06T06:17:44;31.20;99.90
69204;DHT22;56317;27.658;85.326;2023-08-06T06:20:11;30.90;99.90
69204;DHT22;56317;27.658;85.326;2023-08-06T06:22:39;30.50;99.90
69204;DHT22;56317;27.658;85.326;2023-08-06T06:25:06;30.20;99.90
69204;DHT22;56317;27.658;85.326;2023-08-06T06:27:33;29.70;99.90
69204;DHT22;56317;27.658;85.326;2023-08-06T06:30:00;29.60;99.90
69204;DHT22;56317;27.658;85.326;2023-08-06T06:32:28;29.50;99.90
69204;DHT22;56317;27.658;85.326;2023-08-06T06:34:55;29.50;99.90
69204;DHT22;56317;27.658;85.326;2023-08-06T06:37:22;29.30;99.90
69204;DHT22;56317;27.658;85.326;2023-08-06T06:39:49;29.20;99.90
69204;DHT22;56317;27.658;85.326;2023-08-06T06:42:16;29.10;99.90
69204;DHT22;56317;27.658;85.326;2023-08-06T06:44:46;29.00;99.90
69204;DHT22;56317;27.658;85.326;2023-08-06T06:47:13;29.00;99.90
69204;DHT22;56317;27.658;85.326;2023-08-06T06:49:41;28.70;99.90
69204;DHT22;56317;27.658;85.326;2023-08-06T06:52:08;28.50;99.90
69204;DHT22;56317;27.658;85.326;2023-08-06T06:54:35;28.40;99.90
69204;DHT22;56317;27.658;85.326;2023-08-06T06:57:02;28.20;99.90
69204;DHT22;56317;27.658;85.326;2023-08-06T06:59:30;28.40;99.90
69204;DHT22;56317;27.658;85.326;2023-08-06T07:01:57;28.60;99.90
69204;DHT22;56317;27.658;85.326;2023-08-06T07:04:24;29.00;99.90
69204;DHT22;56317;27.658;85.326;2023-08-06T07:06:51;29.50;99.90
69204;DHT22;56317;27.658;85.326;2023-08-06T07:09:19;30.00;99.90
69204;DHT22;56317;27.658;85.326;2023-08-06T07:11:46;30.20;99.90
69204;DHT22;56317;27.658;85.326;2023-08-06T07:14:13;30.30;99.90
69204;DHT22;56317;27.658;85.326;2023-08-06T07:16:40;30.20;99.90
69204;DHT22;56317;27.658;85.326;2023-08-06T07:29:37;30.00;99.90
69204;DHT22;56317;27.658;85.326;2023-08-06T07:32:07;29.70;99.90
69204;DHT22;56317;27.658;85.326;2023-08-06T07:34:34;29.80;99.90
69204;DHT22;56317;27.658;85.326;2023-08-06T07:37:01;29.70;99.90
69204;DHT22;56317;27.658;85.326;2023-08-06T07:39:28;29.70;99.90
69204;DHT22;56317;27.658;85.326;2023-08-06T07:41:56;29.80;99.90
69204;DHT22;56317;27.658;85.326;2023-08-06T07:44:23;29.70;99.90
69204;DHT22;56317;27.658;85.326;2023-08-06T07:46:50;29.80;99.90
69204;DHT22;56317;27.658;85.326;2023-08-06T07:49:17;29.90;99.90
69204;DHT22;56317;27.658;85.326;2023-08-06T07:51:45;30.00;99.90
69204;DHT22;56317;27.658;85.326;2023-08-06T07:54:12;30.20;99.90
69204;DHT22;56317;27.658;85.326;2023-08-06T07:56:39;30.50;99.90
69204;DHT22;56317;27.658;85.326;2023-08-06T07:59:06;30.60;99.90
69204;DHT22;56317;27.658;85.326;2023-08-06T08:01:33;30.70;99.90
69204;DHT22;56317;27.658;85.326;2023-08-06T08:04:00;30.50;99.90
69204;DHT22;56317;27.658;85.326;2023-08-06T08:06:27;30.30;99.90
69204;DHT22;56317;27.658;85.326;2023-08-06T08:08:54;30.10;99.90
69204;DHT22;56317;27.658;85.326;2023-08-06T08:11:22;29.70;99.90
69204;DHT22;56317;27.658;85.326;2023-08-06T08:13:49;29.30;99.90
69204;DHT22;56317;27.658;85.326;2023-08-06T08:16:16;29.00;99.90
69204;DHT22;56317;27.658;85.326;2023-08-06T08:18:43;28.70;99.90
69204;DHT22;56317;27.658;85.326;2023-08-06T08:21:11;28.30;99.90
69204;DHT22;56317;27.658;85.326;2023-08-06T08:23:39;28.00;99.90
69204;DHT22;56317;27.658;85.326;2023-08-06T08:26:08;27.70;99.90
69204;DHT22;56317;27.658;85.326;2023-08-06T08:28:53;27.50;99.90
69204;DHT22;56317;27.658;85.326;2023-08-06T08:31:26;27.50;99.90
69204;DHT22;56317;27.658;85.326;2023-08-06T08:33:55;27.90;99.90
69204;DHT22;56317;27.658;85.326;2023-08-06T08:36:22;28.30;99.90
69204;DHT22;56317;27.658;85.326;2023-08-06T08:38:49;28.60;99.90
69204;DHT22;56317;27.658;85.326;2023-08-06T08:41:20;28.90;99.90
69204;DHT22;56317;27.658;85.326;2023-08-06T08:43:50;29.10;99.90
69204;DHT22;56317;27.658;85.326;2023-08-06T08:46:20;29.30;99.90
69204;DHT22;56317;27.658;85.326;2023-08-06T08:48:47;29.30;99.90
69204;DHT22;56317;27.658;85.326;2023-08-06T08:51:15;29.10;99.90
69204;DHT22;56317;27.658;85.326;2023-08-06T08:53:44;29.00;99.90
69204;DHT22;56317;27.658;85.326;2023-08-06T08:56:13;29.00;99.90
69204;DHT22;56317;27.658;85.326;2023-08-06T08:58:41;29.00;99.90
69204;DHT22;56317;27.658;85.326;2023-08-06T09:01:09;29.00;99.90
69204;DHT22;56317;27.658;85.326;2023-08-06T09:03:37;29.00;99.90
69204;DHT22;56317;27.658;85.326;2023-08-06T09:06:04;28.80;99.90
69204;DHT22;56317;27.658;85.326;2023-08-06T09:08:36;28.70;99.90
69204;DHT22;56317;27.658;85.326;2023-08-06T09:11:05;28.70;99.90
69204;DHT22;56317;27.658;85.326;2023-08-06T09:13:37;28.80;99.90
69204;DHT22;56317;27.658;85.326;2023-08-06T09:16:05;28.80;99.90
69204;DHT22;56317;27.658;85.326;2023-08-06T09:18:32;29.00;99.90
69204;DHT22;56317;27.658;85.326;2023-08-06T09:20:59;29.00;99.90
69204;DHT22;56317;27.658;85.326;2023-08-06T09:23:30;29.10;99.90
69204;DHT22;56317;27.658;85.326;2023-08-06T09:25:57;29.00;99.90
69204;DHT22;56317;27.658;85.326;2023-08-06T09:28:25;28.90;99.90
69204;DHT22;56317;27.658;85.326;2023-08-06T09:31:03;28.70;99.90
69204;DHT22;56317;27.658;85.326;2023-08-06T09:33:30;28.50;99.90
69204;DHT22;56317;27.658;85.326;2023-08-06T09:35:59;28.40;99.90
69204;DHT22;56317;27.658;85.326;2023-08-06T09:38:38;28.20;99.90
69204;DHT22;56317;27.658;85.326;2023-08-06T09:41:07;28.10;99.90
69204;DHT22;56317;27.658;85.326;2023-08-06T09:43:41;28.00;99.90
69204;DHT22;56317;27.658;85.326;2023-08-06T09:46:13;27.90;99.90
69204;DHT22;56317;27.658;85.326;2023-08-06T09:48:45;27.80;99.90
69204;DHT22;56317;27.658;85.326;2023-08-06T09:51:14;27.70;99.90
69204;DHT22;56317;27.658;85.326;2023-08-06T09:53:42;27.60;99.90
69204;DHT22;56317;27.658;85.326;2023-08-06T09:56:11;27.60;99.90
69204;DHT22;56317;27.658;85.326;2023-08-06T09:58:40;27.50;99.90
69204;DHT22;56317;27.658;85.326;2023-08-06T10:01:08;27.40;99.90
69204;DHT22;56317;27.658;85.326;2023-08-06T10:03:35;27.30;99.90
69204;DHT22;56317;27.658;85.326;2023-08-06T10:06:04;27.20;99.90
69204;DHT22;56317;27.658;85.326;2023-08-06T10:08:33;27.10;99.90
69204;DHT22;56317;27.658;85.326;2023-08-06T10:11:02;27.00;99.90
69204;DHT22;56317;27.658;85.326;2023-08-06T10:13:33;27.10;99.90
69204;DHT22;56317;27.658;85.326;2023-08-06T10:16:03;27.20;99.90
69204;DHT22;56317;27.658;85.326;2023-08-06T10:18:30;27.20;99.90
69204;DHT22;56317;27.658;85.326;2023-08-06T10:20:58;27.10;99.90
69204;DHT22;56317;27.658;85.326;2023-08-06T10:23:37;26.90;99.90
69204;DHT22;56317;27.658;85.326;2023-08-06T10:26:07;26.80;99.90
69204;DHT22;56317;27.658;85.326;2023-08-06T10:28:36;26.60;99.90
69204;DHT22;56317;27.658;85.326;2023-08-06T10:31:04;26.40;99.90
69204;DHT22;56317;27.658;85.326;2023-08-06T10:33:57;26.20;99.90
69204;DHT22;56317;27.658;85.326;2023-08-06T10:36:27;26.00;99.90
69204;DHT22;56317;27.658;85.326;2023-08-06T10:38:58;25.80;99.90
69204;DHT22;56317;27.658;85.326;2023-08-06T10:41:28;25.70;99.90
69204;DHT22;56317;27.658;85.326;2023-08-06T10:44:09;25.60;99.90
69204;DHT22;56317;27.658;85.326;2023-08-06T10:46:37;25.60;99.90
69204;DHT22;56317;27.658;85.326;2023-08-06T10:49:05;25.70;99.90
69204;DHT22;56317;27.658;85.326;2023-08-06T10:51:34;25.60;99.90
69204;DHT22;56317;27.658;85.326;2023-08-06T10:54:01;25.60;99.90
69204;DHT22;56317;27.658;85.326;2023-08-06T10:56:29;25.50;99.90
69204;DHT22;56317;27.658;85.326;2023-08-06T10:58:57;25.50;99.90
69204;DHT22;56317;27.658;85.326;2023-08-06T11:01:26;25.40;99.90
69204;DHT22;56317;27.658;85.326;2023-08-06T11:04:00;25.40;99.90
69204;DHT22;56317;27.658;85.326;2023-08-06T11:06:28;25.20;99.90
69204;DHT22;56317;27.658;85.326;2023-08-06T11:08:55;25.20;99.90
69204;DHT22;56317;27.658;85.326;2023-08-06T11:11:23;25.20;99.90
69204;DHT22;56317;27.658;85.326;2023-08-06T11:13:56;25.10;99.90
69204;DHT22;56317;27.658;85.326;2023-08-06T11:16:23;25.10;99.90
69204;DHT22;56317;27.658;85.326;2023-08-06T11:18:51;25.00;99.90
69204;DHT22;56317;27.658;85.326;2023-08-06T11:21:21;25.00;99.90
69204;DHT22;56317;27.658;85.326;2023-08-06T11:23:48;24.90;99.90
69204;DHT22;56317;27.658;85.326;2023-08-06T11:26:22;24.90;99.90
69204;DHT22;56317;27.658;85.326;2023-08-06T11:28:53;24.80;99.90
69204;DHT22;56317;27.658;85.326;2023-08-06T11:31:22;24.70;99.90
69204;DHT22;56317;27.658;85.326;2023-08-06T11:33:53;24.60;99.90
69204;DHT22;56317;27.658;85.326;2023-08-06T11:36:34;24.50;99.90
69204;DHT22;56317;27.658;85.326;2023-08-06T11:39:03;24.40;99.90
69204;DHT22;56317;27.658;85.326;2023-08-06T11:41:33;24.40;99.90
69204;DHT22;56317;27.658;85.326;2023-08-06T11:44:00;24.30;99.90
69204;DHT22;56317;27.658;85.326;2023-08-06T11:46:28;24.20;99.90
69204;DHT22;56317;27.658;85.326;2023-08-06T11:48:56;24.20;99.90
69204;DHT22;56317;27.658;85.326;2023-08-06T11:51:27;24.20;99.90
69204;DHT22;56317;27.658;85.326;2023-08-06T11:53:58;24.10;99.90
69204;DHT22;56317;27.658;85.326;2023-08-06T11:56:26;24.10;99.90
69204;DHT22;56317;27.658;85.326;2023-08-06T11:58:55;24.00;99.90
69204;DHT22;56317;27.658;85.326;2023-08-06T12:01:22;24.00;99.90
69204;DHT22;56317;27.658;85.326;2023-08-06T12:03:49;24.00;99.90
69204;DHT22;56317;27.658;85.326;2023-08-06T12:06:16;23.90;99.90
69204;DHT22;56317;27.658;85.326;2023-08-06T12:08:43;23.90;99.90
69204;DHT22;56317;27.658;85.326;2023-08-06T12:11:10;23.90;99.90
69204;DHT22;56317;27.658;85.326;2023-08-06T12:13:38;23.80;99.90
69204;DHT22;56317;27.658;85.326;2023-08-06T12:16:05;23.80;99.90
69204;DHT22;56317;27.658;85.326;2023-08-06T12:18:32;23.70;99.90
69204;DHT22;56317;27.658;85.326;2023-08-06T12:20:59;23.70;99.90
69204;DHT22;56317;27.658;85.326;2023-08-06T12:23:26;23.60;99.90
69204;DHT22;56317;27.658;85.326;2023-08-06T12:25:53;23.50;99.90
69204;DHT22;56317;27.658;85.326;2023-08-06T12:28:20;23.50;99.90
69204;DHT22;56317;27.658;85.326;2023-08-06T12:30:47;23.50;99.90
69204;DHT22;56317;27.658;85.326;2023-08-06T12:33:16;23.40;99.90
69204;DHT22;56317;27.658;85.326;2023-08-06T12:35:43;23.40;99.90
69204;DHT22;56317;27.658;85.326;2023-08-06T12:38:10;23.30;99.90
69204;DHT22;56317;27.658;85.326;2023-08-06T12:40:37;23.30;99.90
69204;DHT22;56317;27.658;85.326;2023-08-06T12:43:04;23.30;99.90
69204;DHT22;56317;27.658;85.326;2023-08-06T12:45:31;23.20;99.90
69204;DHT22;56317;27.658;85.326;2023-08-06T12:47:58;23.20;99.90
69204;DHT22;56317;27.658;85.326;2023-08-06T12:50:25;23.10;99.90
69204;DHT22;56317;27.658;85.326;2023-08-06T12:52:52;23.10;99.90
69204;DHT22;56317;27.658;85.326;2023-08-06T12:55:19;23.10;99.90
69204;DHT22;56317;27.658;85.326;2023-08-06T12:57:46;23.10;99.90
69204;DHT22;56317;27.658;85.326;2023-08-06T13:00:13;23.10;99.90
69204;DHT22;56317;27.658;85.326;2023-08-06T13:02:40;23.00;99.90
69204;DHT22;56317;27.658;85.326;2023-08-06T13:05:08;22.90;99.90
69204;DHT22;56317;27.658;85.326;2023-08-06T13:07:36;22.90;99.90
69204;DHT22;56317;27.658;85.326;2023-08-06T13:10:03;22.80;99.90
69204;DHT22;56317;27.658;85.326;2023-08-06T13:12:30;22.80;99.90
69204;DHT22;56317;27.658;85.326;2023-08-06T13:14:57;22.80;99.90
69204;DHT22;56317;27.658;85.326;2023-08-06T13:17:25;22.80;99.90
69204;DHT22;56317;27.658;85.326;2023-08-06T13:19:53;22.80;99.90
69204;DHT22;56317;27.658;85.326;2023-08-06T13:22:20;22.80;99.90
69204;DHT22;56317;27.658;85.326;2023-08-06T13:24:47;22.80;99.90
69204;DHT22;56317;27.658;85.326;2023-08-06T13:27:14;22.80;99.90
69204;DHT22;56317;27.658;85.326;2023-08-06T13:29:41;22.80;99.90
69204;DHT22;56317;27.658;85.326;2023-08-06T13:32:08;22.70;99.90
69204;DHT22;56317;27.658;85.326;2023-08-06T13:34:35;22.70;99.90
69204;DHT22;56317;27.658;85.326;2023-08-06T13:37:02;22.70;99.90
69204;DHT22;56317;27.658;85.326;2023-08-06T13:39:30;22.70;99.90
69204;DHT22;56317;27.658;85.326;2023-08-06T13:41:57;22.70;99.90
69204;DHT22;56317;27.658;85.326;2023-08-06T13:44:24;22.60;99.90
69204;DHT22;56317;27.658;85.326;2023-08-06T13:46:51;22.60;99.90
69204;DHT22;56317;27.658;85.326;2023-08-06T13:49:18;22.70;99.90
69204;DHT22;56317;27.658;85.326;2023-08-06T13:51:45;22.70;99.90
69204;DHT22;56317;27.658;85.326;2023-08-06T13:54:13;22.60;99.90
69204;DHT22;56317;27.658;85.326;2023-08-06T13:56:40;22.60;99.90
69204;DHT22;56317;27.658;85.326;2023-08-06T13:59:07;22.60;99.90
69204;DHT22;56317;27.658;85.326;2023-08-06T14:01:34;22.60;99.90
69204;DHT22;56317;27.658;85.326;2023-08-06T14:04:01;22.60;99.90
69204;DHT22;56317;27.658;85.326;2023-08-06T14:06:29;22.60;99.90
69204;DHT22;56317;27.658;85.326;2023-08-06T14:08:57;22.60;99.90
69204;DHT22;56317;27.658;85.326;2023-08-06T14:11:24;22.60;99.90
69204;DHT22;56317;27.658;85.326;2023-08-06T14:13:51;22.60;99.90
69204;DHT22;56317;27.658;85.326;2023-08-06T14:16:19;22.60;99.90
69204;DHT22;56317;27.658;85.326;2023-08-06T14:18:46;22.50;99.90
69204;DHT22;56317;27.658;85.326;2023-08-06T14:21:13;22.50;99.90
69204;DHT22;56317;27.658;85.326;2023-08-06T14:23:40;22.50;99.90
69204;DHT22;56317;27.658;85.326;2023-08-06T14:26:08;22.50;99.90
69204;DHT22;56317;27.658;85.326;2023-08-06T14:28:37;22.50;99.90
69204;DHT22;56317;27.658;85.326;2023-08-06T14:31:04;22.50;99.90
69204;DHT22;56317;27.658;85.326;2023-08-06T14:33:31;22.50;99.90
69204;DHT22;56317;27.658;85.326;2023-08-06T14:35:58;22.50;99.90
69204;DHT22;56317;27.658;85.326;2023-08-06T14:38:25;22.40;99.90
69204;DHT22;56317;27.658;85.326;2023-08-06T14:40:52;22.50;99.90
69204;DHT22;56317;27.658;85.326;2023-08-06T14:43:19;22.40;99.90
69204;DHT22;56317;27.658;85.326;2023-08-06T14:45:46;22.40;99.90
69204;DHT22;56317;27.658;85.326;2023-08-06T14:48:14;22.50;99.90
69204;DHT22;56317;27.658;85.326;2023-08-06T14:50:41;22.50;99.90
69204;DHT22;56317;27.658;85.326;2023-08-06T14:53:08;22.50;99.90
69204;DHT22;56317;27.658;85.326;2023-08-06T14:55:36;22.50;99.90
69204;DHT22;56317;27.658;85.326;2023-08-06T14:58:04;22.50;99.90
69204;DHT22;56317;27.658;85.326;2023-08-06T15:00:31;22.50;99.90
69204;DHT22;56317;27.658;85.326;2023-08-06T15:02:58;22.50;99.90
69204;DHT22;56317;27.658;85.326;2023-08-06T15:05:25;22.50;99.90
69204;DHT22;56317;27.658;85.326;2023-08-06T15:07:52;22.50;99.90
69204;DHT22;56317;27.658;85.326;2023-08-06T15:10:20;22.40;99.90
69204;DHT22;56317;27.658;85.326;2023-08-06T15:12:47;22.40;99.90
69204;DHT22;56317;27.658;85.326;2023-08-06T15:15:15;22.40;99.90
69204;DHT22;56317;27.658;85.326;2023-08-06T15:17:42;22.40;99.90
69204;DHT22;56317;27.658;85.326;2023-08-06T15:20:09;22.40;99.90
69204;DHT22;56317;27.658;85.326;2023-08-06T15:22:37;22.40;99.90
69204;DHT22;56317;27.658;85.326;2023-08-06T15:25:04;22.40;99.90
69204;DHT22;56317;27.658;85.326;2023-08-06T15:27:31;22.40;99.90
69204;DHT22;56317;27.658;85.326;2023-08-06T15:30:00;22.40;99.90
69204;DHT22;56317;27.658;85.326;2023-08-06T15:32:27;22.40;99.90
69204;DHT22;56317;27.658;85.326;2023-08-06T15:34:54;22.50;99.90
69204;DHT22;56317;27.658;85.326;2023-08-06T15:37:22;22.50;99.90
69204;DHT22;56317;27.658;85.326;2023-08-06T15:39:49;22.50;99.90